createdAt,value
2023-03-07T00:00:17.233Z,98097.41
2023-03-07T00:03:04.489Z,98103.69
2023-03-07T00:05:32.552Z,98091.31
2023-03-07T00:07:59.661Z,98103.09
2023-03-07T00:10:27.219Z,98093.34
2023-03-07T00:12:54.199Z,98099.44
2023-03-07T00:15:21.455Z,98093.34
2023-03-07T00:17:48.804Z,98097.03
2023-03-07T00:20:16.271Z,98088.47
2023-03-07T00:22:46.672Z,98089.13
2023-03-07T00:25:15.097Z,98087.88
2023-03-07T00:27:42.448Z,98086.69
2023-03-07T00:30:12.465Z,98089.31
2023-03-07T00:32:39.662Z,98084.03
2023-03-07T00:35:07.444Z,98078.34
2023-03-07T00:37:34.492Z,98081.19
2023-03-07T00:40:02.388Z,98080.78
2023-03-07T00:42:29.386Z,98075.50
2023-03-07T00:44:56.756Z,98077.31
2023-03-07T00:47:23.700Z,98074.91
2023-03-07T00:49:50.920Z,98076.13
2023-03-07T00:52:18.997Z,98075.53
2023-03-07T00:54:46.495Z,98073.88
2023-03-07T00:57:13.387Z,98060.50
2023-03-07T00:59:40.785Z,98071.06
2023-03-07T01:02:07.835Z,98065.78
2023-03-07T01:04:35.276Z,98066.81
2023-03-07T01:07:02.338Z,98062.53
2023-03-07T01:09:29.719Z,98061.13
2023-03-07T01:11:56.863Z,98054.03
2023-03-07T01:14:25.672Z,98055.66
2023-03-07T01:16:53.009Z,98045.13
2023-03-07T01:19:21.073Z,98037.81
2023-03-07T01:21:48.277Z,98042.66
2023-03-07T01:24:16.352Z,98037.81
2023-03-07T01:26:43.622Z,98037.81
2023-03-07T01:29:12.565Z,98037.81
2023-03-07T01:31:39.788Z,98037.81
2023-03-07T01:34:07.684Z,98028.47
2023-03-07T01:36:37.402Z,98033.94
2023-03-07T01:39:14.567Z,98024.22
2023-03-07T01:41:49.252Z,98026.84
2023-03-07T01:44:26.289Z,98029.28
2023-03-07T01:46:59.974Z,98017.94
2023-03-07T01:49:46.231Z,98028.66
2023-03-07T01:52:29.677Z,98028.06
2023-03-07T01:55:08.483Z,98024.41
2023-03-07T01:57:39.875Z,98023.38
2023-03-07T02:00:13.596Z,98031.28
2023-03-07T02:02:47.607Z,98019.16
2023-03-07T02:05:35.632Z,98021.19
2023-03-07T02:08:04.255Z,98025.81
2023-03-07T02:10:36.654Z,98024.22
2023-03-07T02:13:04.490Z,98023.19
2023-03-07T02:15:35.154Z,98025.22
2023-03-07T02:18:05.779Z,98018.34
2023-03-07T02:20:56.118Z,98021.97
2023-03-07T02:24:10.073Z,98022.19
2023-03-07T02:26:49.533Z,98023.03
2023-03-07T02:29:17.269Z,98027.25
2023-03-07T02:31:47.933Z,98027.25
2023-03-07T02:34:31.216Z,98018.75
2023-03-07T02:37:20.492Z,98016.53
2023-03-07T02:39:49.441Z,98020.38
2023-03-07T02:42:28.417Z,98016.13
2023-03-07T02:45:09.996Z,98018.16
2023-03-07T02:47:39.382Z,98018.16
2023-03-07T02:50:07.453Z,98012.28
2023-03-07T02:52:38.542Z,98016.72
2023-03-07T02:55:07.555Z,98019.16
2023-03-07T02:57:37.564Z,98016.50
2023-03-07T03:00:08.074Z,98014.91
2023-03-07T03:02:35.679Z,98021.19
2023-03-07T03:05:03.427Z,98017.72
2023-03-07T03:07:30.805Z,98021.56
2023-03-07T03:09:57.853Z,98022.78
2023-03-07T03:12:25.428Z,98013.47
2023-03-07T03:14:52.473Z,98009.22
2023-03-07T03:17:19.781Z,98022.41
2023-03-07T03:19:47.006Z,98008.63
2023-03-07T03:22:14.563Z,98015.50
2023-03-07T03:24:45.234Z,98013.25
2023-03-07T03:27:15.743Z,98015.91
2023-03-07T03:29:44.309Z,98015.13
2023-03-07T03:32:12.421Z,98019.56
2023-03-07T03:34:42.400Z,98016.34
2023-03-07T03:37:09.558Z,98017.94
2023-03-07T03:39:37.580Z,98009.44
2023-03-07T03:42:06.185Z,98014.69
2023-03-07T03:44:33.579Z,98001.75
2023-03-07T03:47:02.482Z,98016.72
2023-03-07T03:49:29.800Z,98015.69
2023-03-07T03:51:57.078Z,98009.81
2023-03-07T03:54:24.583Z,98020.38
2023-03-07T03:56:54.997Z,98009.81
2023-03-07T03:59:22.377Z,98005.38
2023-03-07T04:01:50.230Z,98018.34
2023-03-07T04:04:19.141Z,98021.19
2023-03-07T04:06:46.620Z,98022.00
2023-03-07T04:09:15.122Z,98023.00
2023-03-07T04:11:46.376Z,98022.00
2023-03-07T04:14:13.650Z,98018.53
2023-03-07T04:16:40.979Z,98016.13
2023-03-07T04:19:12.934Z,98013.50
2023-03-07T04:21:41.007Z,98014.28
2023-03-07T04:24:09.285Z,98011.84
2023-03-07T04:26:36.941Z,98019.53
2023-03-07T04:29:04.880Z,98011.63
2023-03-07T04:31:36.368Z,98011.47
2023-03-07T04:34:04.980Z,98011.63
2023-03-07T04:36:32.684Z,98010.63
2023-03-07T04:38:59.770Z,98006.59
2023-03-07T04:41:28.860Z,98006.59
2023-03-07T04:44:06.376Z,98010.63
2023-03-07T04:46:33.724Z,98012.66
2023-03-07T04:49:01.344Z,98008.22
2023-03-07T04:51:28.903Z,98002.94
2023-03-07T04:53:55.792Z,98002.13
2023-03-07T04:56:23.269Z,98006.59
2023-03-07T04:58:50.503Z,98005.78
2023-03-07T05:01:19.052Z,98003.94
2023-03-07T05:03:47.292Z,98008.41
2023-03-07T05:06:16.714Z,98002.31
2023-03-07T05:08:48.374Z,98004.94
2023-03-07T05:11:16.397Z,98003.34
2023-03-07T05:13:43.341Z,98008.63
2023-03-07T05:16:10.931Z,98008.63
2023-03-07T05:18:38.815Z,98012.25
2023-03-07T05:21:06.916Z,98002.53
2023-03-07T05:23:33.952Z,98007.81
2023-03-07T05:26:01.244Z,98015.50
2023-03-07T05:28:28.599Z,98008.63
2023-03-07T05:30:55.872Z,98011.84
2023-03-07T05:33:23.244Z,98012.84
2023-03-07T05:35:50.933Z,98012.84
2023-03-07T05:38:18.589Z,98011.25
2023-03-07T05:40:46.667Z,98004.16
2023-03-07T05:43:14.522Z,98013.69
2023-03-07T05:45:41.916Z,98010.22
2023-03-07T05:48:08.882Z,98010.22
2023-03-07T05:50:38.937Z,98011.84
2023-03-07T05:53:06.442Z,98010.84
2023-03-07T05:55:34.517Z,98004.94
2023-03-07T05:58:03.335Z,98010.22
2023-03-07T06:00:30.844Z,98009.22
2023-03-07T06:03:04.861Z,98011.84
2023-03-07T06:05:33.120Z,98001.31
2023-03-07T06:08:00.250Z,98005.38
2023-03-07T06:10:27.608Z,98008.22
2023-03-07T06:12:55.898Z,98004.56
2023-03-07T06:15:24.700Z,98009.81
2023-03-07T06:17:57.254Z,98009.44
2023-03-07T06:20:25.064Z,98003.56
2023-03-07T06:22:54.885Z,98009.44
2023-03-07T06:25:22.191Z,98008.44
2023-03-07T06:27:49.978Z,98007.41
2023-03-07T06:30:17.779Z,98010.63
2023-03-07T06:32:45.294Z,98007.81
2023-03-07T06:35:12.813Z,98007.59
2023-03-07T06:37:39.772Z,98021.97
2023-03-07T06:40:09.618Z,98013.06
2023-03-07T06:42:37.630Z,98016.72
2023-03-07T06:45:06.428Z,98023.00
2023-03-07T06:47:34.867Z,98016.72
2023-03-07T06:50:03.560Z,98015.72
2023-03-07T06:52:32.155Z,98014.28
2023-03-07T06:55:01.395Z,98014.91
2023-03-07T06:57:29.749Z,98017.72
2023-03-07T06:59:57.091Z,98014.91
2023-03-07T07:02:24.748Z,98011.25
2023-03-07T07:04:52.199Z,98010.25
2023-03-07T07:07:19.835Z,98007.38
2023-03-07T07:09:47.094Z,98005.56
2023-03-07T07:12:15.262Z,98015.50
2023-03-07T07:14:42.496Z,98010.63
2023-03-07T07:17:09.909Z,98003.31
2023-03-07T07:19:37.363Z,98007.97
2023-03-07T07:22:04.638Z,98007.78
2023-03-07T07:24:31.994Z,98012.63
2023-03-07T07:26:58.903Z,98003.31
2023-03-07T07:29:26.583Z,98010.59
2023-03-07T07:31:54.803Z,98005.31
2023-03-07T07:34:22.959Z,98004.69
2023-03-07T07:36:50.023Z,98004.88
2023-03-07T07:39:17.759Z,98005.47
2023-03-07T07:41:47.758Z,98006.47
2023-03-07T07:44:16.216Z,97995.47
2023-03-07T07:46:52.810Z,98005.59
2023-03-07T07:49:20.086Z,98006.66
2023-03-07T07:51:47.159Z,98007.22
2023-03-07T07:54:14.724Z,97996.66
2023-03-07T07:56:42.047Z,98005.13
2023-03-07T07:59:09.425Z,98004.63
2023-03-07T08:01:36.859Z,97992.41
2023-03-07T08:04:04.304Z,97991.94
2023-03-07T08:06:31.747Z,97990.28
2023-03-07T08:09:00.167Z,97990.28
2023-03-07T08:11:28.258Z,97995.34
2023-03-07T08:13:55.744Z,97990.81
2023-03-07T08:16:24.194Z,97982.88
2023-03-07T08:18:55.887Z,97980.41
2023-03-07T08:21:25.413Z,97978.78
2023-03-07T08:23:54.525Z,97983.16
2023-03-07T08:26:21.896Z,97974.16
2023-03-07T08:28:49.203Z,97973.31
2023-03-07T08:31:23.351Z,97974.81
2023-03-07T08:33:52.172Z,97961.75
2023-03-07T08:36:20.193Z,97966.91
2023-03-07T08:38:52.220Z,97960.16
2023-03-07T08:41:22.332Z,97965.56
2023-03-07T08:43:50.148Z,97959.59
2023-03-07T08:46:17.467Z,97961.66
2023-03-07T08:48:45.166Z,97961.34
2023-03-07T08:51:15.663Z,97962.97
2023-03-07T08:53:44.790Z,97966.78
2023-03-07T08:56:17.005Z,97964.88
2023-03-07T08:58:44.764Z,97966.28
2023-03-07T09:01:12.967Z,97964.16
2023-03-07T09:03:40.398Z,97957.50
2023-03-07T09:06:08.230Z,97960.28
2023-03-07T09:08:35.441Z,97960.00
2023-03-07T09:11:05.594Z,97954.41
2023-03-07T09:13:36.092Z,97959.34
2023-03-07T09:16:08.566Z,97948.44
2023-03-07T09:18:36.670Z,97949.97
2023-03-07T09:21:05.905Z,97945.75
2023-03-07T09:23:33.385Z,97948.06
2023-03-07T09:26:02.254Z,97941.66
2023-03-07T09:28:29.471Z,97944.22
2023-03-07T09:30:56.543Z,97938.69
2023-03-07T09:33:24.108Z,97935.47
2023-03-07T09:35:51.278Z,97934.50
2023-03-07T09:38:18.528Z,97932.81
2023-03-07T09:40:47.619Z,97918.44
2023-03-07T09:43:26.767Z,97916.50
2023-03-07T09:46:47.488Z,97918.44
2023-03-07T09:49:24.590Z,97914.72
2023-03-07T09:51:57.264Z,97914.28
2023-03-07T09:54:45.561Z,97919.22
2023-03-07T09:57:31.462Z,97912.84
2023-03-07T10:00:33.891Z,97912.53
2023-03-07T10:03:35.959Z,97911.66
2023-03-07T10:06:42.979Z,97898.28
2023-03-07T10:09:22.349Z,97905.69
2023-03-07T10:12:18.135Z,97903.91
2023-03-07T10:15:18.154Z,97908.84
2023-03-07T10:18:10.592Z,97899.59
2023-03-07T10:20:55.648Z,97905.31
2023-03-07T10:23:37.153Z,97902.84
2023-03-07T10:26:31.513Z,97903.50
2023-03-07T10:29:10.472Z,97890.88
2023-03-07T10:31:44.878Z,97883.38
2023-03-07T10:34:27.445Z,97893.66
2023-03-07T10:37:08.861Z,97893.03
2023-03-07T10:39:55.532Z,97889.72
2023-03-07T10:42:32.076Z,97878.91
2023-03-07T10:44:59.559Z,97876.97
2023-03-07T10:47:28.782Z,97876.88
2023-03-07T10:50:24.172Z,97874.56
2023-03-07T10:53:04.952Z,97865.38
2023-03-07T10:55:44.459Z,97864.25
2023-03-07T10:58:28.232Z,97857.78
2023-03-07T11:01:19.488Z,97861.00
2023-03-07T11:03:56.896Z,97858.34
2023-03-07T11:06:40.510Z,97857.56
2023-03-07T11:09:16.493Z,97845.31
2023-03-07T11:12:12.898Z,97848.78
2023-03-07T11:15:18.069Z,97843.00
2023-03-07T11:17:48.491Z,97848.06
2023-03-07T11:20:30.629Z,97833.69
2023-03-07T11:23:16.807Z,97847.72
2023-03-07T11:25:44.087Z,97839.84
2023-03-07T11:28:28.241Z,97830.69
2023-03-07T11:31:28.941Z,97828.59
2023-03-07T11:34:08.746Z,97832.13
2023-03-07T11:36:39.595Z,97824.41
2023-03-07T11:39:34.336Z,97819.25
2023-03-07T11:42:15.398Z,97811.28
2023-03-07T11:44:58.044Z,97817.25
2023-03-07T11:47:47.809Z,97812.00
2023-03-07T11:50:27.062Z,97806.69
2023-03-07T11:53:26.692Z,97800.38
2023-03-07T11:56:37.167Z,97795.97
2023-03-07T11:59:49.066Z,97791.50
2023-03-07T12:02:46.290Z,97790.06
2023-03-07T12:05:51.838Z,97801.44
2023-03-07T12:08:55.175Z,97795.19
2023-03-07T12:11:55.544Z,97785.53
2023-03-07T12:14:42.302Z,97775.63
2023-03-07T12:17:26.412Z,97772.22
2023-03-07T12:20:19.018Z,97775.94
2023-03-07T12:22:58.571Z,97775.94
2023-03-07T12:25:38.345Z,97789.75
2023-03-07T12:28:24.696Z,97775.34
2023-03-07T12:31:20.034Z,97769.50
2023-03-07T12:33:50.256Z,97771.09
2023-03-07T12:36:48.321Z,97776.44
2023-03-07T12:39:18.475Z,97765.78
2023-03-07T12:42:09.348Z,97769.06
2023-03-07T12:45:07.496Z,97780.84
2023-03-07T12:48:07.123Z,97777.97
2023-03-07T12:51:09.343Z,97780.41
2023-03-07T12:53:59.411Z,97780.41
2023-03-07T12:56:55.435Z,97774.22
2023-03-07T12:59:23.447Z,97771.81
2023-03-07T13:02:10.826Z,97775.53
2023-03-07T13:04:43.219Z,97773.94
2023-03-07T13:07:32.199Z,97764.88
2023-03-07T13:10:06.474Z,97770.78
2023-03-07T13:12:37.668Z,97769.00
2023-03-07T13:15:59.177Z,97768.88
2023-03-07T13:18:30.735Z,97765.16
2023-03-07T13:21:35.122Z,97762.88
2023-03-07T13:24:40.091Z,97750.91
2023-03-07T13:27:41.327Z,97751.97
2023-03-07T13:30:08.377Z,97742.47
2023-03-07T13:32:50.916Z,97753.47
2023-03-07T13:35:39.209Z,97743.59
2023-03-07T13:38:41.135Z,97738.25
2023-03-07T13:41:11.817Z,97736.13
2023-03-07T13:43:45.120Z,97735.03
2023-03-07T13:46:52.432Z,97735.56
2023-03-07T13:49:41.719Z,97735.00
2023-03-07T13:52:22.685Z,97730.22
2023-03-07T13:54:52.082Z,97721.66
2023-03-07T13:57:25.328Z,97719.00
2023-03-07T13:59:54.598Z,97718.75
2023-03-07T14:02:23.160Z,97707.03
2023-03-07T14:04:55.857Z,97705.47
2023-03-07T14:07:35.344Z,97710.50
2023-03-07T14:10:22.358Z,97708.91
2023-03-07T14:13:05.235Z,97701.94
2023-03-07T14:16:04.916Z,97702.44
2023-03-07T14:19:04.628Z,97704.06
2023-03-07T14:22:00.962Z,97698.72
2023-03-07T14:24:46.191Z,97691.28
2023-03-07T14:27:16.722Z,97692.31
2023-03-07T14:29:53.950Z,97684.88
2023-03-07T14:32:25.270Z,97688.28
2023-03-07T14:34:55.575Z,97684.25
2023-03-07T14:37:32.624Z,97675.72
2023-03-07T14:39:59.539Z,97672.50
2023-03-07T14:42:56.544Z,97685.78
2023-03-07T14:45:38.867Z,97678.06
2023-03-07T14:48:42.951Z,97680.47
2023-03-07T14:51:20.301Z,97682.59
2023-03-07T14:53:48.996Z,97676.22
2023-03-07T14:56:32.158Z,97661.03
2023-03-07T14:59:03.204Z,97670.38
2023-03-07T15:01:37.444Z,97664.28
2023-03-07T15:04:28.731Z,97662.41
2023-03-07T15:07:04.439Z,97651.75
2023-03-07T15:09:34.354Z,97657.59
2023-03-07T15:12:12.636Z,97665.06
2023-03-07T15:14:59.190Z,97660.75
2023-03-07T15:17:32.681Z,97664.97
2023-03-07T15:20:16.800Z,97660.72
2023-03-07T15:22:43.948Z,97654.03
2023-03-07T15:25:24.529Z,97660.69
2023-03-07T15:28:18.058Z,97653.22
2023-03-07T15:30:53.567Z,97651.09
2023-03-07T15:33:22.583Z,97661.78
2023-03-07T15:36:11.660Z,97650.03
2023-03-07T15:38:44.540Z,97654.28
2023-03-07T15:41:58.834Z,97655.59
2023-03-07T15:44:27.253Z,97658.72
2023-03-07T15:46:58.626Z,97658.91
2023-03-07T15:49:50.006Z,97662.59
2023-03-07T15:52:36.703Z,97650.81
2023-03-07T15:55:18.119Z,97667.19
2023-03-07T15:57:54.931Z,97659.66
2023-03-07T16:00:35.078Z,97660.91
2023-03-07T16:03:32.354Z,97658.94
2023-03-07T16:06:02.029Z,97654.88
2023-03-07T16:08:29.361Z,97653.44
2023-03-07T16:11:03.384Z,97661.13
2023-03-07T16:13:43.650Z,97653.59
2023-03-07T16:16:13.876Z,97657.81
2023-03-07T16:18:43.578Z,97647.34
2023-03-07T16:21:15.111Z,97653.16
2023-03-07T16:23:43.138Z,97639.25
2023-03-07T16:26:22.986Z,97645.50
2023-03-07T16:28:52.970Z,97648.09
2023-03-07T16:31:21.066Z,97643.19
2023-03-07T16:33:48.872Z,97645.78
2023-03-07T16:36:16.510Z,97645.22
2023-03-07T16:38:45.964Z,97642.50
2023-03-07T16:41:19.855Z,97626.47
2023-03-07T16:43:55.307Z,97637.03
2023-03-07T16:46:24.516Z,97639.72
2023-03-07T16:48:51.821Z,97638.28
2023-03-07T16:51:23.497Z,97637.56
2023-03-07T16:53:51.509Z,97635.66
2023-03-07T16:56:35.002Z,97634.53
2023-03-07T16:59:04.946Z,97633.41
2023-03-07T17:01:32.518Z,97632.00
2023-03-07T17:03:59.853Z,97633.28
2023-03-07T17:06:38.448Z,97639.53
2023-03-07T17:09:10.128Z,97636.50
2023-03-07T17:11:46.746Z,97632.47
2023-03-07T17:14:17.663Z,97645.16
2023-03-07T17:16:49.051Z,97640.91
2023-03-07T17:19:29.634Z,97643.25
2023-03-07T17:21:58.730Z,97648.25
2023-03-07T17:24:29.043Z,97645.81
2023-03-07T17:27:03.479Z,97645.00
2023-03-07T17:29:38.368Z,97648.72
2023-03-07T17:32:07.543Z,97641.00
2023-03-07T17:34:37.100Z,97640.19
2023-03-07T17:37:05.353Z,97646.31
2023-03-07T17:39:34.445Z,97648.72
2023-03-07T17:42:05.136Z,97640.75
2023-03-07T17:44:33.136Z,97643.41
2023-03-07T17:47:01.041Z,97644.22
2023-03-07T17:49:38.129Z,97639.13
2023-03-07T17:52:07.009Z,97633.25
2023-03-07T17:54:34.513Z,97629.00
2023-03-07T17:57:02.297Z,97631.66
2023-03-07T17:59:32.760Z,97624.41
2023-03-07T18:01:59.896Z,97615.06
2023-03-07T18:04:30.932Z,97620.38
2023-03-07T18:06:59.863Z,97617.16
2023-03-07T18:09:27.077Z,97626.66
2023-03-07T18:11:54.332Z,97626.66
2023-03-07T18:14:21.593Z,97627.69
2023-03-07T18:16:49.073Z,97622.38
2023-03-07T18:19:25.739Z,97621.84
2023-03-07T18:21:55.243Z,97620.25
2023-03-07T18:24:26.457Z,97619.44
2023-03-07T18:26:55.732Z,97613.31
2023-03-07T18:29:23.782Z,97608.00
2023-03-07T18:31:51.665Z,97606.38
2023-03-07T18:34:20.227Z,97601.06
2023-03-07T18:36:51.377Z,97596.28
2023-03-07T18:39:21.371Z,97596.28
2023-03-07T18:41:49.680Z,97601.56
2023-03-07T18:44:18.445Z,97599.13
2023-03-07T18:46:45.820Z,97596.75
2023-03-07T18:49:13.492Z,97590.63
2023-03-07T18:51:42.707Z,97595.13
2023-03-07T18:54:10.213Z,97597.22
2023-03-07T18:56:37.635Z,97601.50
2023-03-07T18:59:04.849Z,97598.84
2023-03-07T19:01:35.308Z,97602.53
2023-03-07T19:04:05.317Z,97595.59
2023-03-07T19:06:35.789Z,97598.50
2023-03-07T19:09:03.872Z,97592.63
2023-03-07T19:11:32.394Z,97590.19
2023-03-07T19:13:59.868Z,97584.34
2023-03-07T19:16:28.492Z,97591.25
2023-03-07T19:18:56.502Z,97586.44
2023-03-07T19:21:27.309Z,97584.03
2023-03-07T19:23:57.260Z,97587.72
2023-03-07T19:26:25.222Z,97590.13
2023-03-07T19:28:54.845Z,97587.97
2023-03-07T19:31:29.572Z,97582.66
2023-03-07T19:33:58.430Z,97584.16
2023-03-07T19:36:31.968Z,97581.50
2023-03-07T19:38:59.510Z,97587.88
2023-03-07T19:41:29.839Z,97581.75
2023-03-07T19:43:59.913Z,97581.41
2023-03-07T19:46:27.737Z,97576.34
2023-03-07T19:48:55.851Z,97577.63
2023-03-07T19:51:26.347Z,97574.44
2023-03-07T19:53:57.151Z,97573.88
2023-03-07T19:56:28.694Z,97575.38
2023-03-07T19:58:58.423Z,97573.78
2023-03-07T20:01:27.756Z,97571.94
2023-03-07T20:03:56.048Z,97572.72
2023-03-07T20:06:32.164Z,97571.13
2023-03-07T20:09:01.285Z,97567.91
2023-03-07T20:11:33.954Z,97572.41
2023-03-07T20:14:05.146Z,97568.22
2023-03-07T20:16:34.546Z,97565.34
2023-03-07T20:19:08.945Z,97553.13
2023-03-07T20:21:36.874Z,97555.22
2023-03-07T20:24:04.811Z,97558.34
2023-03-07T20:26:36.369Z,97560.50
2023-03-07T20:29:07.246Z,97561.78
2023-03-07T20:31:36.139Z,97553.59
2023-03-07T20:34:03.522Z,97550.94
2023-03-07T20:36:34.085Z,97555.22
2023-03-07T20:39:09.958Z,97553.38
2023-03-07T20:41:37.076Z,97541.41
2023-03-07T20:44:07.714Z,97543.22
2023-03-07T20:46:37.905Z,97541.94
2023-03-07T20:49:05.853Z,97542.16
2023-03-07T20:51:36.290Z,97540.59
2023-03-07T20:54:08.340Z,97533.44
2023-03-07T20:56:37.724Z,97534.47
2023-03-07T20:59:06.007Z,97539.78
2023-03-07T21:01:35.326Z,97539.78
2023-03-07T21:04:07.905Z,97546.69
2023-03-07T21:06:37.172Z,97541.41
2023-03-07T21:09:08.094Z,97544.03
2023-03-07T21:11:38.540Z,97542.97
2023-03-07T21:14:05.871Z,97549.91
2023-03-07T21:16:33.113Z,97546.19
2023-03-07T21:19:06.844Z,97548.28
2023-03-07T21:21:35.768Z,97543.53
2023-03-07T21:24:04.655Z,97535.59
2023-03-07T21:26:41.256Z,97537.69
2023-03-07T21:29:10.648Z,97532.38
2023-03-07T21:31:38.596Z,97536.09
2023-03-07T21:34:11.703Z,97532.38
2023-03-07T21:36:38.889Z,97523.38
2023-03-07T21:39:09.633Z,97524.97
2023-03-07T21:41:37.120Z,97531.91
2023-03-07T21:44:05.500Z,97529.00
2023-03-07T21:46:32.976Z,97529.81
2023-03-07T21:49:01.371Z,97526.13
2023-03-07T21:51:28.618Z,97535.94
2023-03-07T21:53:55.938Z,97532.25
2023-03-07T21:56:23.913Z,97536.75
2023-03-07T21:58:52.912Z,97537.53
2023-03-07T22:01:29.005Z,97535.13
2023-03-07T22:03:59.160Z,97536.75
2023-03-07T22:06:27.612Z,97540.19
2023-03-07T22:08:55.101Z,97539.94
2023-03-07T22:11:22.409Z,97536.25
2023-03-07T22:13:49.988Z,97545.25
2023-03-07T22:16:20.596Z,97537.28
2023-03-07T22:18:56.093Z,97535.69
2023-03-07T22:21:27.692Z,97530.38
2023-03-07T22:23:57.931Z,97526.94
2023-03-07T22:26:26.652Z,97533.84
2023-03-07T22:28:54.521Z,97530.16
2023-03-07T22:31:21.513Z,97530.97
2023-03-07T22:33:48.778Z,97521.13
2023-03-07T22:36:16.320Z,97522.75
2023-03-07T22:38:44.538Z,97520.34
2023-03-07T22:41:15.904Z,97527.25
2023-03-07T22:43:44.040Z,97535.19
2023-03-07T22:46:11.787Z,97532.56
2023-03-07T22:48:39.963Z,97519.53
2023-03-07T22:51:20.267Z,97523.00
2023-03-07T22:53:48.359Z,97523.00
2023-03-07T22:56:24.137Z,97513.44
2023-03-07T22:58:51.511Z,97518.72
2023-03-07T23:01:22.602Z,97513.69
2023-03-07T23:03:52.723Z,97518.72
2023-03-07T23:06:32.999Z,97513.44
2023-03-07T23:09:03.296Z,97517.09
2023-03-07T23:11:32.898Z,97505.47
2023-03-07T23:14:00.701Z,97513.44
2023-03-07T23:16:32.407Z,97510.22
2023-03-07T23:19:00.479Z,97504.91
2023-03-07T23:21:31.411Z,97514.97
2023-03-07T23:24:00.658Z,97512.31
2023-03-07T23:26:35.783Z,97516.00
2023-03-07T23:29:09.644Z,97506.19
2023-03-07T23:31:40.076Z,97515.19
2023-03-07T23:34:21.087Z,97514.38
2023-03-07T23:36:48.340Z,97517.53
2023-03-07T23:39:17.478Z,97518.56
2023-03-07T23:41:44.906Z,97519.38
2023-03-07T23:44:13.082Z,97521.22
2023-03-07T23:46:40.123Z,97513.25
2023-03-07T23:49:07.296Z,97511.63
2023-03-07T23:51:34.578Z,97516.16
2023-03-07T23:54:02.985Z,97518.56
2023-03-07T23:56:29.996Z,97516.94
2023-03-07T23:58:57.164Z,97519.38
